Estación Meteorológica Peña el Pijo (Robertgarden) [ 10/21/18 13:48:06 CEST ]

Fecha Hora Presion(HPa) Temp (°C) Humedad % Rocio (°C) Viento ( m/s) Direccion Lluvia 1Hora(mm) Lluvia 24H(mm) LLuvia Total(mm)
2017-Dec-26 01:01:59 1010.600 6.6 74 2.3         21.23
2017-Dec-26 02:04:09 1010.200 6.8 73 2.3         21.23
2017-Dec-26 03:01:55 1010.300 6.8 74 2.5 0.5 NNW     21.23
2017-Dec-26 04:02:04 1010.200 6.6 77 2.8         21.23
2017-Dec-26 05:02:05 1009.400 6.9 78 3.3         21.23
2017-Dec-26 06:02:02 1008.900 7.1 78 3.5         21.23
2017-Dec-26 07:01:49 1008.900 7.2 77 3.4         21.23
2017-Dec-26 08:01:49 1008.700 7.2 77 3.4         21.23
2017-Dec-26 09:01:46 1008.300 6.9 78 3.3         21.23
2017-Dec-26 10:01:45 1008.300 8.6 78 5.0         21.23
2017-Dec-26 11:01:51 1008.300 9.8 75 5.5         21.23
2017-Dec-26 12:01:59 1008.300 8.9 76 4.8         21.23
2017-Dec-26 13:01:54 1007.900 8.8 74 4.4 1.7 WNW     21.23
2017-Dec-26 14:01:54 1007.700 7.7 69 2.4         21.23
2017-Dec-26 15:01:53 1007.000 7.2 63 0.6         21.23
2017-Dec-26 16:01:46 1006.500 8.0 59 0.4 2.7 WNW     21.23
2017-Dec-26 17:01:46 1005.900 6.4 60 -0.8         21.23
2017-Dec-26 18:01:43 1005.900 4.9 65 -1.1 0.4 WNW     21.23
2017-Dec-26 19:01:45 1005.600 4.3 69 -0.9         21.23
2017-Dec-26 20:01:43 1006.300 4.4 69 -0.8 2.2 WNW     21.23
2017-Dec-26 21:01:50 1005.300 4.1 69 -1.1         21.23
2017-Dec-26 22:01:39 1004.600 4.4 70 -0.6         21.23
2017-Dec-26 23:01:47 1003.500 4.9 73 0.4         21.23

Temperatura Máxima:    Temperatura Mínima:
Presión Máxima:1010.600 Hpa    Presión Mínima:1003.500 Hpa


Volver